sensor_id;sensor_type;location;lat;lon;timestamp;pressure;altitude;pressure_sealevel;temperature;humidity
68107;BME280;54892;47.488;19.026;2023-02-13T00:01:21;102151.87;;;0.72;78.52
68107;BME280;54892;47.488;19.026;2023-02-13T00:04:25;102150.34;;;0.59;78.91
68107;BME280;54892;47.488;19.026;2023-02-13T00:07:29;102141.34;;;0.64;78.51
68107;BME280;54892;47.488;19.026;2023-02-13T00:10:32;102150.91;;;0.53;79.06
68107;BME280;54892;47.488;19.026;2023-02-13T00:13:37;102162.37;;;0.51;78.78
68107;BME280;54892;47.488;19.026;2023-02-13T00:16:40;102160.75;;;0.59;78.33
68107;BME280;54892;47.488;19.026;2023-02-13T00:19:43;102149.81;;;0.56;78.08
68107;BME280;54892;47.488;19.026;2023-02-13T00:22:46;102152.94;;;0.50;78.17
68107;BME280;54892;47.488;19.026;2023-02-13T00:25:50;102166.47;;;0.34;79.08
68107;BME280;54892;47.488;19.026;2023-02-13T00:28:55;102166.56;;;0.32;79.22
68107;BME280;54892;47.488;19.026;2023-02-13T00:31:58;102172.63;;;0.42;78.45
68107;BME280;54892;47.488;19.026;2023-02-13T00:35:02;102165.25;;;0.38;78.58
68107;BME280;54892;47.488;19.026;2023-02-13T00:38:04;102161.56;;;0.40;78.68
68107;BME280;54892;47.488;19.026;2023-02-13T00:41:08;102159.75;;;0.41;78.89
68107;BME280;54892;47.488;19.026;2023-02-13T00:44:12;102168.09;;;0.35;79.14
68107;BME280;54892;47.488;19.026;2023-02-13T00:47:15;102159.34;;;0.36;79.11
68107;BME280;54892;47.488;19.026;2023-02-13T00:50:19;102162.91;;;0.35;79.30
68107;BME280;54892;47.488;19.026;2023-02-13T00:53:23;102165.75;;;0.32;79.70
68107;BME280;54892;47.488;19.026;2023-02-13T00:56:26;102162.72;;;0.26;79.73
68107;BME280;54892;47.488;19.026;2023-02-13T00:59:31;102150.69;;;0.25;80.01
68107;BME280;54892;47.488;19.026;2023-02-13T01:02:34;102155.22;;;0.23;80.12
68107;BME280;54892;47.488;19.026;2023-02-13T01:05:37;102145.22;;;0.19;80.12
68107;BME280;54892;47.488;19.026;2023-02-13T01:08:40;102142.63;;;0.19;80.35
68107;BME280;54892;47.488;19.026;2023-02-13T01:11:44;102141.81;;;0.18;80.56
68107;BME280;54892;47.488;19.026;2023-02-13T01:14:48;102155.31;;;0.12;80.44
68107;BME280;54892;47.488;19.026;2023-02-13T01:17:53;102151.22;;;0.09;80.02
68107;BME280;54892;47.488;19.026;2023-02-13T01:20:58;102128.94;;;0.07;79.53
68107;BME280;54892;47.488;19.026;2023-02-13T01:24:03;102130.28;;;0.01;79.61
68107;BME280;54892;47.488;19.026;2023-02-13T01:27:06;102121.53;;;0.02;79.57
68107;BME280;54892;47.488;19.026;2023-02-13T01:30:12;102128.09;;;0.06;79.63
68107;BME280;54892;47.488;19.026;2023-02-13T01:33:16;102130.84;;;0.05;79.86
68107;BME280;54892;47.488;19.026;2023-02-13T01:36:20;102133.03;;;0.09;80.00
68107;BME280;54892;47.488;19.026;2023-02-13T01:39:23;102128.66;;;0.10;80.22
68107;BME280;54892;47.488;19.026;2023-02-13T01:42:26;102133.59;;;0.13;80.38
68107;BME280;54892;47.488;19.026;2023-02-13T01:45:31;102129.75;;;0.07;80.91
68107;BME280;54892;47.488;19.026;2023-02-13T01:48:35;102125.94;;;0.11;81.18
68107;BME280;54892;47.488;19.026;2023-02-13T01:51:38;102129.59;;;-0.01;81.73
68107;BME280;54892;47.488;19.026;2023-02-13T01:54:42;102132.59;;;0.04;81.28
68107;BME280;54892;47.488;19.026;2023-02-13T01:57:48;102123.28;;;-0.08;81.77
68107;BME280;54892;47.488;19.026;2023-02-13T02:00:54;102125.06;;;-0.09;81.90
68107;BME280;54892;47.488;19.026;2023-02-13T02:03:59;102126.81;;;-0.09;81.89
68107;BME280;54892;47.488;19.026;2023-02-13T02:07:06;102127.38;;;-0.06;81.61
68107;BME280;54892;47.488;19.026;2023-02-13T02:10:12;102122.34;;;-0.07;81.65
68107;BME280;54892;47.488;19.026;2023-02-13T02:13:19;102123.97;;;-0.06;81.64
68107;BME280;54892;47.488;19.026;2023-02-13T02:16:24;102119.28;;;-0.12;81.40
68107;BME280;54892;47.488;19.026;2023-02-13T02:19:31;102113.56;;;-0.16;81.61
68107;BME280;54892;47.488;19.026;2023-02-13T02:22:42;102121.09;;;-0.13;81.52
68107;BME280;54892;47.488;19.026;2023-02-13T02:25:58;102120.41;;;-0.15;81.68
68107;BME280;54892;47.488;19.026;2023-02-13T02:29:18;102120.66;;;-0.18;81.63
68107;BME280;54892;47.488;19.026;2023-02-13T02:32:33;102119.03;;;-0.09;81.33
68107;BME280;54892;47.488;19.026;2023-02-13T02:35:41;102121.78;;;-0.11;81.35
68107;BME280;54892;47.488;19.026;2023-02-13T02:38:52;102128.06;;;-0.04;80.91
68107;BME280;54892;47.488;19.026;2023-02-13T02:42:00;102123.97;;;-0.06;80.58
68107;BME280;54892;47.488;19.026;2023-02-13T02:45:08;102121.34;;;-0.16;81.20
68107;BME280;54892;47.488;19.026;2023-02-13T02:48:15;102117.63;;;-0.23;81.02
68107;BME280;54892;47.488;19.026;2023-02-13T02:51:39;102119.84;;;-0.19;81.09
68107;BME280;54892;47.488;19.026;2023-02-13T02:54:47;102117.78;;;-0.15;80.70
68107;BME280;54892;47.488;19.026;2023-02-13T02:58:10;102121.59;;;-0.19;80.34
68107;BME280;54892;47.488;19.026;2023-02-13T03:01:33;102121.03;;;-0.23;80.63
68107;BME280;54892;47.488;19.026;2023-02-13T03:04:56;102113.78;;;-0.29;80.66
68107;BME280;54892;47.488;19.026;2023-02-13T03:08:18;102115.72;;;-0.21;80.51
68107;BME280;54892;47.488;19.026;2023-02-13T03:11:41;102115.03;;;-0.23;80.47
68107;BME280;54892;47.488;19.026;2023-02-13T03:15:05;102113.78;;;-0.29;80.71
68107;BME280;54892;47.488;19.026;2023-02-13T03:18:08;102119.59;;;-0.37;80.76
68107;BME280;54892;47.488;19.026;2023-02-13T03:21:42;102114.00;;;-0.42;80.70
68107;BME280;54892;47.488;19.026;2023-02-13T03:25:05;102116.72;;;-0.43;81.09
68107;BME280;54892;47.488;19.026;2023-02-13T03:28:11;102115.75;;;-0.42;81.01
68107;BME280;54892;47.488;19.026;2023-02-13T03:31:34;102113.25;;;-0.54;81.69
68107;BME280;54892;47.488;19.026;2023-02-13T03:34:40;102110.06;;;-0.36;81.23
68107;BME280;54892;47.488;19.026;2023-02-13T03:38:10;102114.31;;;-0.35;81.08
68107;BME280;54892;47.488;19.026;2023-02-13T03:41:17;102116.97;;;-0.47;81.20
68107;BME280;54892;47.488;19.026;2023-02-13T03:44:23;102110.81;;;-0.55;81.48
68107;BME280;54892;47.488;19.026;2023-02-13T03:47:29;102108.47;;;-0.58;81.80
68107;BME280;54892;47.488;19.026;2023-02-13T03:50:33;102112.16;;;-0.51;81.54
68107;BME280;54892;47.488;19.026;2023-02-13T03:53:39;102102.25;;;-0.46;81.24
68107;BME280;54892;47.488;19.026;2023-02-13T03:56:44;102102.03;;;-0.54;80.96
68107;BME280;54892;47.488;19.026;2023-02-13T04:00:07;102099.34;;;-0.53;81.12
68107;BME280;54892;47.488;19.026;2023-02-13T04:03:12;102098.78;;;-0.56;81.08
68107;BME280;54892;47.488;19.026;2023-02-13T04:06:17;102100.22;;;-0.64;81.35
68107;BME280;54892;47.488;19.026;2023-02-13T04:09:24;102103.66;;;-0.63;81.30
68107;BME280;54892;47.488;19.026;2023-02-13T04:12:32;102103.38;;;-0.60;81.32
68107;BME280;54892;47.488;19.026;2023-02-13T04:15:38;102110.88;;;-0.67;81.12
68107;BME280;54892;47.488;19.026;2023-02-13T04:18:43;102113.06;;;-0.62;80.87
68107;BME280;54892;47.488;19.026;2023-02-13T04:21:48;102105.69;;;-0.67;80.87
68107;BME280;54892;47.488;19.026;2023-02-13T04:24:57;102111.87;;;-0.58;80.65
68107;BME280;54892;47.488;19.026;2023-02-13T04:28:01;102105.63;;;-0.55;80.49
68107;BME280;54892;47.488;19.026;2023-02-13T04:31:04;102104.63;;;-0.54;80.41
68107;BME280;54892;47.488;19.026;2023-02-13T04:34:08;102107.13;;;-0.53;80.12
68107;BME280;54892;47.488;19.026;2023-02-13T04:37:10;102101.06;;;-0.63;80.44
68107;BME280;54892;47.488;19.026;2023-02-13T04:40:15;102097.78;;;-0.65;80.48
68107;BME280;54892;47.488;19.026;2023-02-13T04:43:18;102098.66;;;-0.55;80.47
68107;BME280;54892;47.488;19.026;2023-02-13T04:46:22;102098.09;;;-0.58;80.44
68107;BME280;54892;47.488;19.026;2023-02-13T04:49:25;102092.75;;;-0.57;80.26
68107;BME280;54892;47.488;19.026;2023-02-13T04:52:28;102097.50;;;-0.62;80.49
68107;BME280;54892;47.488;19.026;2023-02-13T04:55:32;102091.56;;;-0.53;80.19
68107;BME280;54892;47.488;19.026;2023-02-13T04:58:36;102083.22;;;-0.56;80.24
68107;BME280;54892;47.488;19.026;2023-02-13T05:01:39;102093.72;;;-0.58;80.24
68107;BME280;54892;47.488;19.026;2023-02-13T05:04:42;102085.38;;;-0.62;80.25
68107;BME280;54892;47.488;19.026;2023-02-13T05:07:45;102087.91;;;-0.71;80.94
68107;BME280;54892;47.488;19.026;2023-02-13T05:10:50;102080.69;;;-0.68;80.78
68107;BME280;54892;47.488;19.026;2023-02-13T05:13:53;102082.56;;;-0.80;80.80
68107;BME280;54892;47.488;19.026;2023-02-13T05:16:56;102081.41;;;-0.87;81.11
68107;BME280;54892;47.488;19.026;2023-02-13T05:19:59;102079.31;;;-0.93;81.29
68107;BME280;54892;47.488;19.026;2023-02-13T05:23:03;102076.31;;;-0.98;81.41
68107;BME280;54892;47.488;19.026;2023-02-13T05:26:24;102065.62;;;-1.05;81.65
68107;BME280;54892;47.488;19.026;2023-02-13T05:29:27;102071.13;;;-0.98;81.50
68107;BME280;54892;47.488;19.026;2023-02-13T05:32:31;102063.13;;;-1.07;81.93
68107;BME280;54892;47.488;19.026;2023-02-13T05:35:34;102062.56;;;-1.10;81.95
68107;BME280;54892;47.488;19.026;2023-02-13T05:38:37;102066.00;;;-1.10;82.09
68107;BME280;54892;47.488;19.026;2023-02-13T05:41:43;102065.31;;;-1.12;82.39
68107;BME280;54892;47.488;19.026;2023-02-13T05:44:46;102072.81;;;-1.09;82.73
68107;BME280;54892;47.488;19.026;2023-02-13T05:47:50;102071.63;;;-1.04;82.49
68107;BME280;54892;47.488;19.026;2023-02-13T05:50:53;102071.38;;;-1.01;82.33
68107;BME280;54892;47.488;19.026;2023-02-13T05:53:56;102080.53;;;-0.97;82.17
68107;BME280;54892;47.488;19.026;2023-02-13T05:57:01;102080.22;;;-1.04;82.48
68107;BME280;54892;47.488;19.026;2023-02-13T06:00:04;102073.16;;;-1.02;82.61
68107;BME280;54892;47.488;19.026;2023-02-13T06:03:08;102081.16;;;-1.05;82.73
68107;BME280;54892;47.488;19.026;2023-02-13T06:06:11;102084.19;;;-1.00;82.59
68107;BME280;54892;47.488;19.026;2023-02-13T06:09:14;102082.59;;;-0.91;82.34
68107;BME280;54892;47.488;19.026;2023-02-13T06:12:19;102091.34;;;-0.92;82.28
68107;BME280;54892;47.488;19.026;2023-02-13T06:15:22;102102.41;;;-0.90;82.47
68107;BME280;54892;47.488;19.026;2023-02-13T06:18:25;102111.31;;;-0.83;82.37
68107;BME280;54892;47.488;19.026;2023-02-13T06:21:28;102108.03;;;-0.85;82.22
68107;BME280;54892;47.488;19.026;2023-02-13T06:24:31;102114.87;;;-0.84;82.41
68107;BME280;54892;47.488;19.026;2023-02-13T06:27:36;102108.72;;;-0.83;82.03
68107;BME280;54892;47.488;19.026;2023-02-13T06:30:39;102108.59;;;-0.81;82.46
68107;BME280;54892;47.488;19.026;2023-02-13T06:33:42;102115.56;;;-0.82;81.48
68107;BME280;54892;47.488;19.026;2023-02-13T06:36:45;102122.25;;;-0.79;81.04
68107;BME280;54892;47.488;19.026;2023-02-13T06:39:48;102121.31;;;-0.78;80.96
68107;BME280;54892;47.488;19.026;2023-02-13T06:42:53;102120.53;;;-0.69;80.93
68107;BME280;54892;47.488;19.026;2023-02-13T06:45:57;102118.84;;;-0.58;80.70
68107;BME280;54892;47.488;19.026;2023-02-13T06:49:00;102118.34;;;-0.42;80.26
68107;BME280;54892;47.488;19.026;2023-02-13T06:52:03;102125.88;;;-0.39;80.00
68107;BME280;54892;47.488;19.026;2023-02-13T06:55:06;102119.91;;;-0.30;80.11
68107;BME280;54892;47.488;19.026;2023-02-13T06:58:11;102122.69;;;-0.22;79.73
68107;BME280;54892;47.488;19.026;2023-02-13T07:01:15;102117.63;;;-0.23;79.50
68107;BME280;54892;47.488;19.026;2023-02-13T07:04:18;102126.56;;;-0.06;79.39
68107;BME280;54892;47.488;19.026;2023-02-13T07:07:21;102116.16;;;0.64;77.23
68107;BME280;54892;47.488;19.026;2023-02-13T07:10:25;102131.41;;;1.46;74.31
68107;BME280;54892;47.488;19.026;2023-02-13T07:13:30;102127.25;;;1.91;71.36
68107;BME280;54892;47.488;19.026;2023-02-13T07:16:33;102128.22;;;2.36;69.59
68107;BME280;54892;47.488;19.026;2023-02-13T07:19:37;102129.13;;;2.26;69.42
68107;BME280;54892;47.488;19.026;2023-02-13T07:22:40;102128.63;;;2.77;67.98
68107;BME280;54892;47.488;19.026;2023-02-13T07:25:43;102136.16;;;2.62;67.26
68107;BME280;54892;47.488;19.026;2023-02-13T07:28:48;102131.16;;;3.13;66.03
68107;BME280;54892;47.488;19.026;2023-02-13T07:31:59;102129.75;;;3.45;65.84
68107;BME280;54892;47.488;19.026;2023-02-13T07:35:03;102124.31;;;4.08;63.56
68107;BME280;54892;47.488;19.026;2023-02-13T07:38:06;102120.81;;;4.42;62.01
68107;BME280;54892;47.488;19.026;2023-02-13T07:41:11;102130.31;;;4.84;59.99
68107;BME280;54892;47.488;19.026;2023-02-13T07:44:15;102134.69;;;5.25;59.07
68107;BME280;54892;47.488;19.026;2023-02-13T07:47:19;102130.97;;;5.68;58.01
68107;BME280;54892;47.488;19.026;2023-02-13T07:50:22;102139.94;;;5.09;59.46
68107;BME280;54892;47.488;19.026;2023-02-13T07:53:25;102145.59;;;4.21;60.55
68107;BME280;54892;47.488;19.026;2023-02-13T07:56:29;102143.88;;;3.08;63.50
68107;BME280;54892;47.488;19.026;2023-02-13T07:59:33;102153.69;;;3.14;64.24
68107;BME280;54892;47.488;19.026;2023-02-13T08:02:36;102152.37;;;3.63;62.61
68107;BME280;54892;47.488;19.026;2023-02-13T08:05:40;102144.06;;;3.68;62.57
68107;BME280;54892;47.488;19.026;2023-02-13T08:08:44;102152.88;;;3.66;63.08
68107;BME280;54892;47.488;19.026;2023-02-13T08:11:47;102152.88;;;3.66;62.72
68107;BME280;54892;47.488;19.026;2023-02-13T08:14:58;102145.81;;;3.59;63.05
68107;BME280;54892;47.488;19.026;2023-02-13T08:18:01;102154.78;;;3.91;62.82
68107;BME280;54892;47.488;19.026;2023-02-13T08:21:04;102137.94;;;4.53;59.91
68107;BME280;54892;47.488;19.026;2023-02-13T08:24:07;102142.47;;;5.58;56.80
68107;BME280;54892;47.488;19.026;2023-02-13T08:27:11;102133.97;;;6.59;54.49
68107;BME280;54892;47.488;19.026;2023-02-13T08:30:16;102137.56;;;7.50;51.45
68107;BME280;54892;47.488;19.026;2023-02-13T08:33:19;102142.81;;;7.35;51.66
68107;BME280;54892;47.488;19.026;2023-02-13T08:36:22;102133.88;;;6.91;52.85
68107;BME280;54892;47.488;19.026;2023-02-13T08:39:26;102138.81;;;4.86;58.38
68107;BME280;54892;47.488;19.026;2023-02-13T08:42:29;102137.12;;;5.27;57.86
68107;BME280;54892;47.488;19.026;2023-02-13T08:45:34;102122.59;;;5.08;58.05
68107;BME280;54892;47.488;19.026;2023-02-13T08:48:37;102135.03;;;4.64;59.43
68107;BME280;54892;47.488;19.026;2023-02-13T08:51:40;102132.09;;;4.59;59.20
68107;BME280;54892;47.488;19.026;2023-02-13T08:54:43;102136.62;;;4.40;60.17
68107;BME280;54892;47.488;19.026;2023-02-13T08:57:47;102136.84;;;3.96;61.15
68107;BME280;54892;47.488;19.026;2023-02-13T09:00:52;102131.13;;;3.92;61.12
68107;BME280;54892;47.488;19.026;2023-02-13T09:03:56;102127.81;;;3.47;62.32
68107;BME280;54892;47.488;19.026;2023-02-13T09:06:59;102128.91;;;3.71;61.80
68107;BME280;54892;47.488;19.026;2023-02-13T09:10:02;102132.31;;;3.63;61.66
68107;BME280;54892;47.488;19.026;2023-02-13T09:13:05;102127.19;;;3.54;61.88
68107;BME280;54892;47.488;19.026;2023-02-13T09:16:10;102134.91;;;3.63;62.36
68107;BME280;54892;47.488;19.026;2023-02-13T09:19:13;102134.84;;;3.55;61.93
68107;BME280;54892;47.488;19.026;2023-02-13T09:22:16;102130.03;;;3.69;62.28
68107;BME280;54892;47.488;19.026;2023-02-13T09:25:20;102129.31;;;3.93;61.86
68107;BME280;54892;47.488;19.026;2023-02-13T09:28:23;102128.69;;;3.99;61.56
68107;BME280;54892;47.488;19.026;2023-02-13T09:31:27;102136.16;;;3.86;61.72
68107;BME280;54892;47.488;19.026;2023-02-13T09:34:30;102134.22;;;3.88;61.99
68107;BME280;54892;47.488;19.026;2023-02-13T09:37:34;102126.38;;;3.96;61.72
68107;BME280;54892;47.488;19.026;2023-02-13T09:40:39;102133.31;;;3.71;62.12
68107;BME280;54892;47.488;19.026;2023-02-13T09:43:45;102128.78;;;3.81;62.47
68107;BME280;54892;47.488;19.026;2023-02-13T09:46:51;102131.66;;;4.04;62.18
68107;BME280;54892;47.488;19.026;2023-02-13T09:49:56;102128.25;;;4.20;61.62
68107;BME280;54892;47.488;19.026;2023-02-13T09:53:01;102122.56;;;4.25;61.85
68107;BME280;54892;47.488;19.026;2023-02-13T09:56:05;102124.72;;;4.46;61.60
68107;BME280;54892;47.488;19.026;2023-02-13T09:59:14;102125.06;;;4.68;60.64
68107;BME280;54892;47.488;19.026;2023-02-13T10:02:29;102120.66;;;4.85;59.53
68107;BME280;54892;47.488;19.026;2023-02-13T10:05:40;102118.53;;;4.72;60.64
68107;BME280;54892;47.488;19.026;2023-02-13T10:08:48;102113.16;;;4.82;60.87
68107;BME280;54892;47.488;19.026;2023-02-13T10:12:04;102112.13;;;4.99;60.60
68107;BME280;54892;47.488;19.026;2023-02-13T10:15:13;102100.00;;;5.15;59.77
68107;BME280;54892;47.488;19.026;2023-02-13T10:18:20;102099.16;;;5.23;59.52
68107;BME280;54892;47.488;19.026;2023-02-13T10:21:26;102092.94;;;5.24;59.09
68107;BME280;54892;47.488;19.026;2023-02-13T10:24:32;102097.19;;;5.25;59.33
68107;BME280;54892;47.488;19.026;2023-02-13T10:27:39;102092.44;;;5.37;59.16
68107;BME280;54892;47.488;19.026;2023-02-13T10:30:45;102088.91;;;5.13;59.42
68107;BME280;54892;47.488;19.026;2023-02-13T10:33:52;102089.56;;;5.07;59.73
68107;BME280;54892;47.488;19.026;2023-02-13T10:36:59;102093.31;;;5.21;59.76
68107;BME280;54892;47.488;19.026;2023-02-13T10:40:04;102080.50;;;5.34;59.85
68107;BME280;54892;47.488;19.026;2023-02-13T10:43:13;102085.22;;;5.39;59.39
68107;BME280;54892;47.488;19.026;2023-02-13T10:46:19;102075.94;;;5.76;58.52
68107;BME280;54892;47.488;19.026;2023-02-13T10:49:29;102074.84;;;6.02;58.03
68107;BME280;54892;47.488;19.026;2023-02-13T10:52:40;102078.09;;;5.95;58.11
68107;BME280;54892;47.488;19.026;2023-02-13T10:55:54;102064.66;;;6.30;56.58
68107;BME280;54892;47.488;19.026;2023-02-13T10:59:09;102064.53;;;6.23;56.08
68107;BME280;54892;47.488;19.026;2023-02-13T11:02:21;102065.28;;;6.32;56.52
68107;BME280;54892;47.488;19.026;2023-02-13T11:05:29;102048.97;;;6.45;56.22
68107;BME280;54892;47.488;19.026;2023-02-13T11:08:33;102033.63;;;6.57;55.65
68107;BME280;54892;47.488;19.026;2023-02-13T11:11:37;102043.81;;;6.52;55.49
68107;BME280;54892;47.488;19.026;2023-02-13T11:14:41;102029.84;;;6.36;56.47
68107;BME280;54892;47.488;19.026;2023-02-13T11:17:55;102027.34;;;6.43;56.43
68107;BME280;54892;47.488;19.026;2023-02-13T11:21:06;102025.47;;;6.52;55.81
68107;BME280;54892;47.488;19.026;2023-02-13T11:24:15;102020.97;;;6.61;55.52
68107;BME280;54892;47.488;19.026;2023-02-13T11:27:22;102024.06;;;6.79;55.36
68107;BME280;54892;47.488;19.026;2023-02-13T11:30:29;102018.88;;;6.71;55.93
68107;BME280;54892;47.488;19.026;2023-02-13T11:33:33;102016.28;;;6.86;55.66
68107;BME280;54892;47.488;19.026;2023-02-13T11:36:37;102010.41;;;6.99;55.60
68107;BME280;54892;47.488;19.026;2023-02-13T11:39:40;102006.97;;;7.13;55.48
68107;BME280;54892;47.488;19.026;2023-02-13T11:42:44;102001.59;;;7.22;55.92
68107;BME280;54892;47.488;19.026;2023-02-13T11:45:59;101994.56;;;7.22;56.74
68107;BME280;54892;47.488;19.026;2023-02-13T11:49:03;101989.66;;;7.19;57.45
68107;BME280;54892;47.488;19.026;2023-02-13T11:52:09;101983.38;;;7.35;56.55
68107;BME280;54892;47.488;19.026;2023-02-13T11:55:24;101983.28;;;7.43;54.36
68107;BME280;54892;47.488;19.026;2023-02-13T11:58:28;101986.78;;;7.51;54.73
68107;BME280;54892;47.488;19.026;2023-02-13T12:01:31;101980.44;;;7.60;54.30
68107;BME280;54892;47.488;19.026;2023-02-13T12:04:35;101984.31;;;7.64;53.83
68107;BME280;54892;47.488;19.026;2023-02-13T12:07:39;101983.31;;;7.65;53.51
68107;BME280;54892;47.488;19.026;2023-02-13T12:10:43;101974.72;;;7.56;54.17
68107;BME280;54892;47.488;19.026;2023-02-13T12:13:47;101979.66;;;7.44;54.78
68107;BME280;54892;47.488;19.026;2023-02-13T12:16:51;101986.63;;;7.52;54.29
68107;BME280;54892;47.488;19.026;2023-02-13T12:19:56;101981.03;;;7.40;55.09
68107;BME280;54892;47.488;19.026;2023-02-13T12:23:02;101982.56;;;7.71;53.57
68107;BME280;54892;47.488;19.026;2023-02-13T12:26:12;101981.44;;;7.59;54.47
68107;BME280;54892;47.488;19.026;2023-02-13T12:29:25;101976.75;;;7.54;54.14
68107;BME280;54892;47.488;19.026;2023-02-13T12:32:35;101954.19;;;7.45;54.84
68107;BME280;54892;47.488;19.026;2023-02-13T12:35:44;101955.97;;;7.59;55.13
68107;BME280;54892;47.488;19.026;2023-02-13T12:38:55;101963.50;;;7.84;53.91
68107;BME280;54892;47.488;19.026;2023-02-13T12:42:13;101955.41;;;7.64;54.74
68107;BME280;54892;47.488;19.026;2023-02-13T12:45:24;101947.78;;;7.91;54.67
68107;BME280;54892;47.488;19.026;2023-02-13T12:48:34;101942.41;;;7.77;55.81
68107;BME280;54892;47.488;19.026;2023-02-13T12:51:43;101941.84;;;7.82;55.98
68107;BME280;54892;47.488;19.026;2023-02-13T12:54:55;101934.81;;;7.89;55.61
68107;BME280;54892;47.488;19.026;2023-02-13T12:58:06;101931.69;;;7.79;55.82
68107;BME280;54892;47.488;19.026;2023-02-13T13:01:19;101923.50;;;7.67;56.19
68107;BME280;54892;47.488;19.026;2023-02-13T13:04:26;101915.13;;;7.57;56.75
68107;BME280;54892;47.488;19.026;2023-02-13T13:07:40;101915.84;;;7.29;57.64
68107;BME280;54892;47.488;19.026;2023-02-13T13:10:52;101911.22;;;7.31;58.30
68107;BME280;54892;47.488;19.026;2023-02-13T13:13:58;101917.84;;;7.27;59.11
68107;BME280;54892;47.488;19.026;2023-02-13T13:17:06;101911.87;;;7.18;59.57
68107;BME280;54892;47.488;19.026;2023-02-13T13:20:29;101907.50;;;7.25;59.40
68107;BME280;54892;47.488;19.026;2023-02-13T13:23:36;101911.50;;;7.21;59.33
68107;BME280;54892;47.488;19.026;2023-02-13T13:26:43;101907.81;;;7.15;59.94
68107;BME280;54892;47.488;19.026;2023-02-13T13:29:49;101905.63;;;7.19;60.03
68107;BME280;54892;47.488;19.026;2023-02-13T13:32:55;101902.81;;;7.21;60.27
68107;BME280;54892;47.488;19.026;2023-02-13T13:36:01;101905.06;;;7.24;60.40
68107;BME280;54892;47.488;19.026;2023-02-13T13:39:10;101903.72;;;7.13;60.47
68107;BME280;54892;47.488;19.026;2023-02-13T13:42:19;101907.31;;;7.27;60.65
68107;BME280;54892;47.488;19.026;2023-02-13T13:45:26;101904.00;;;7.40;60.14
68107;BME280;54892;47.488;19.026;2023-02-13T13:48:49;101901.84;;;7.43;59.70
68107;BME280;54892;47.488;19.026;2023-02-13T13:52:08;101901.72;;;7.52;59.64
68107;BME280;54892;47.488;19.026;2023-02-13T13:55:33;101892.53;;;7.62;59.32
68107;BME280;54892;47.488;19.026;2023-02-13T13:58:45;101898.22;;;7.66;58.51
68107;BME280;54892;47.488;19.026;2023-02-13T14:01:53;101892.06;;;7.81;57.40
68107;BME280;54892;47.488;19.026;2023-02-13T14:05:27;101897.78;;;7.62;58.12
68107;BME280;54892;47.488;19.026;2023-02-13T14:08:53;101892.03;;;7.52;58.72
68107;BME280;54892;47.488;19.026;2023-02-13T14:11:57;101901.16;;;7.56;58.48
68107;BME280;54892;47.488;19.026;2023-02-13T14:18:49;101906.78;;;7.53;59.12
68107;BME280;54892;47.488;19.026;2023-02-13T14:21:53;101903.34;;;7.53;59.22
68107;BME280;54892;47.488;19.026;2023-02-13T14:24:56;101906.91;;;7.45;59.67
68107;BME280;54892;47.488;19.026;2023-02-13T14:28:01;101909.53;;;7.45;60.12
68107;BME280;54892;47.488;19.026;2023-02-13T14:31:06;101908.53;;;7.46;60.28
68107;BME280;54892;47.488;19.026;2023-02-13T14:34:18;101907.66;;;7.39;60.71
68107;BME280;54892;47.488;19.026;2023-02-13T14:37:31;101912.28;;;7.37;60.97
68107;BME280;54892;47.488;19.026;2023-02-13T14:43:49;101920.09;;;7.30;61.16
68107;BME280;54892;47.488;19.026;2023-02-13T14:46:53;101919.47;;;7.13;61.80
68107;BME280;54892;47.488;19.026;2023-02-13T14:49:59;101908.91;;;7.06;62.19
68107;BME280;54892;47.488;19.026;2023-02-13T14:53:06;101910.47;;;7.00;62.75
68107;BME280;54892;47.488;19.026;2023-02-13T14:56:11;101914.72;;;7.01;63.05
68107;BME280;54892;47.488;19.026;2023-02-13T14:59:15;101913.62;;;6.96;63.34
68107;BME280;54892;47.488;19.026;2023-02-13T15:02:20;101919.88;;;6.95;63.58
68107;BME280;54892;47.488;19.026;2023-02-13T15:05:28;101913.62;;;6.96;63.83
68107;BME280;54892;47.488;19.026;2023-02-13T15:08:33;101903.34;;;6.79;64.40
68107;BME280;54892;47.488;19.026;2023-02-13T15:11:39;101904.97;;;6.80;64.54
68107;BME280;54892;47.488;19.026;2023-02-13T15:14:44;101900.44;;;6.74;64.67
68107;BME280;54892;47.488;19.026;2023-02-13T15:17:47;101904.06;;;6.73;64.84
68107;BME280;54892;47.488;19.026;2023-02-13T15:20:54;101909.56;;;6.63;65.04
68107;BME280;54892;47.488;19.026;2023-02-13T15:24:01;101904.87;;;6.59;65.16
68107;BME280;54892;47.488;19.026;2023-02-13T15:27:05;101915.44;;;6.65;65.18
68107;BME280;54892;47.488;19.026;2023-02-13T15:30:17;101913.09;;;6.55;65.48
68107;BME280;54892;47.488;19.026;2023-02-13T15:33:21;101916.56;;;6.56;65.61
68107;BME280;54892;47.488;19.026;2023-02-13T15:36:32;101914.22;;;6.61;65.50
68107;BME280;54892;47.488;19.026;2023-02-13T15:39:36;101914.38;;;6.60;65.57
68107;BME280;54892;47.488;19.026;2023-02-13T15:42:39;101909.06;;;6.68;65.33
68107;BME280;54892;47.488;19.026;2023-02-13T15:45:43;101905.50;;;6.61;65.30
68107;BME280;54892;47.488;19.026;2023-02-13T15:48:46;101901.53;;;6.65;65.32
68107;BME280;54892;47.488;19.026;2023-02-13T15:52:00;101900.97;;;6.54;65.59
68107;BME280;54892;47.488;19.026;2023-02-13T15:55:04;101898.09;;;6.49;65.84
68107;BME280;54892;47.488;19.026;2023-02-13T15:58:08;101896.62;;;6.47;65.99
68107;BME280;54892;47.488;19.026;2023-02-13T16:01:13;101900.38;;;6.52;65.81
68107;BME280;54892;47.488;19.026;2023-02-13T16:04:20;101902.91;;;6.46;65.78
68107;BME280;54892;47.488;19.026;2023-02-13T16:07:27;101900.87;;;6.48;65.75
68107;BME280;54892;47.488;19.026;2023-02-13T16:10:31;101901.72;;;6.48;65.80
68107;BME280;54892;47.488;19.026;2023-02-13T16:13:38;101911.37;;;6.48;66.00
68107;BME280;54892;47.488;19.026;2023-02-13T16:16:46;101913.84;;;6.49;65.89
68107;BME280;54892;47.488;19.026;2023-02-13T16:19:51;101908.22;;;6.52;65.84